sensor_id;sensor_type;location;lat;lon;timestamp;temperature;humidity
67133;HTU21D;54052;53.542;49.408;2022-10-15T00:02:17;6.08;86.87
67133;HTU21D;54052;53.542;49.408;2022-10-15T00:04:49;6.07;87.02
67133;HTU21D;54052;53.542;49.408;2022-10-15T00:07:20;6.08;86.36
67133;HTU21D;54052;53.542;49.408;2022-10-15T00:09:51;6.07;85.38
67133;HTU21D;54052;53.542;49.408;2022-10-15T00:12:23;6.04;85.59
67133;HTU21D;54052;53.542;49.408;2022-10-15T00:14:54;6.01;86.24
67133;HTU21D;54052;53.542;49.408;2022-10-15T00:17:25;5.87;86.51
67133;HTU21D;54052;53.542;49.408;2022-10-15T00:19:57;5.84;86.80
67133;HTU21D;54052;53.542;49.408;2022-10-15T00:22:28;5.90;85.72
67133;HTU21D;54052;53.542;49.408;2022-10-15T00:25:00;5.89;86.06
67133;HTU21D;54052;53.542;49.408;2022-10-15T00:27:35;5.85;86.68
67133;HTU21D;54052;53.542;49.408;2022-10-15T00:30:07;5.84;86.31
67133;HTU21D;54052;53.542;49.408;2022-10-15T00:32:39;5.83;86.16
67133;HTU21D;54052;53.542;49.408;2022-10-15T00:35:10;5.80;86.35
67133;HTU21D;54052;53.542;49.408;2022-10-15T00:37:42;5.74;85.93
67133;HTU21D;54052;53.542;49.408;2022-10-15T00:40:14;5.64;86.22
67133;HTU21D;54052;53.542;49.408;2022-10-15T00:42:46;5.60;86.51
67133;HTU21D;54052;53.542;49.408;2022-10-15T00:45:17;5.61;86.61
67133;HTU21D;54052;53.542;49.408;2022-10-15T00:47:49;5.54;85.81
67133;HTU21D;54052;53.542;49.408;2022-10-15T00:50:24;5.56;87.05
67133;HTU21D;54052;53.542;49.408;2022-10-15T00:53:07;5.51;86.59
67133;HTU21D;54052;53.542;49.408;2022-10-15T00:55:40;5.48;86.88
67133;HTU21D;54052;53.542;49.408;2022-10-15T00:58:17;5.43;86.92
67133;HTU21D;54052;53.542;49.408;2022-10-15T01:00:53;5.46;87.31
67133;HTU21D;54052;53.542;49.408;2022-10-15T01:03:25;5.51;86.41
67133;HTU21D;54052;53.542;49.408;2022-10-15T01:05:56;5.51;87.25
67133;HTU21D;54052;53.542;49.408;2022-10-15T01:08:28;5.55;87.37
67133;HTU21D;54052;53.542;49.408;2022-10-15T01:11:27;5.54;86.43
67133;HTU21D;54052;53.542;49.408;2022-10-15T01:14:20;5.51;86.21
67133;HTU21D;54052;53.542;49.408;2022-10-15T01:16:55;5.49;86.38
67133;HTU21D;54052;53.542;49.408;2022-10-15T01:19:43;5.45;86.28
67133;HTU21D;54052;53.542;49.408;2022-10-15T01:34:13;5.34;86.53
67133;HTU21D;54052;53.542;49.408;2022-10-15T01:36:54;5.25;86.86
67133;HTU21D;54052;53.542;49.408;2022-10-15T01:39:31;5.28;87.71
67133;HTU21D;54052;53.542;49.408;2022-10-15T01:42:13;5.37;86.78
67133;HTU21D;54052;53.542;49.408;2022-10-15T01:44:50;5.34;86.33
67133;HTU21D;54052;53.542;49.408;2022-10-15T01:47:38;5.37;86.54
67133;HTU21D;54052;53.542;49.408;2022-10-15T01:50:12;5.37;86.82
67133;HTU21D;54052;53.542;49.408;2022-10-15T01:52:47;5.28;86.62
67133;HTU21D;54052;53.542;49.408;2022-10-15T01:55:19;5.28;86.90
67133;HTU21D;54052;53.542;49.408;2022-10-15T01:57:54;5.26;86.74
67133;HTU21D;54052;53.542;49.408;2022-10-15T02:00:26;5.23;87.36
67133;HTU21D;54052;53.542;49.408;2022-10-15T02:02:59;5.28;86.86
67133;HTU21D;54052;53.542;49.408;2022-10-15T02:05:38;5.26;86.92
67133;HTU21D;54052;53.542;49.408;2022-10-15T02:08:37;5.32;86.45
67133;HTU21D;54052;53.542;49.408;2022-10-15T02:11:17;5.38;86.20
67133;HTU21D;54052;53.542;49.408;2022-10-15T02:14:34;5.34;86.18
67133;HTU21D;54052;53.542;49.408;2022-10-15T02:17:10;5.32;86.30
67133;HTU21D;54052;53.542;49.408;2022-10-15T02:19:48;5.31;85.35
67133;HTU21D;54052;53.542;49.408;2022-10-15T02:22:25;5.28;85.46
67133;HTU21D;54052;53.542;49.408;2022-10-15T02:25:05;5.26;84.38
67133;HTU21D;54052;53.542;49.408;2022-10-15T02:27:37;5.19;84.58
67133;HTU21D;54052;53.542;49.408;2022-10-15T02:30:10;5.03;84.56
67133;HTU21D;54052;53.542;49.408;2022-10-15T02:32:43;4.97;84.62
67133;HTU21D;54052;53.542;49.408;2022-10-15T02:35:16;4.94;84.75
67133;HTU21D;54052;53.542;49.408;2022-10-15T02:37:51;4.92;84.44
67133;HTU21D;54052;53.542;49.408;2022-10-15T02:40:27;4.83;84.47
67133;HTU21D;54052;53.542;49.408;2022-10-15T02:42:59;4.79;84.46
67133;HTU21D;54052;53.542;49.408;2022-10-15T02:45:30;4.80;84.65
67133;HTU21D;54052;53.542;49.408;2022-10-15T02:48:02;4.74;84.45
67133;HTU21D;54052;53.542;49.408;2022-10-15T02:50:33;4.67;84.84
67133;HTU21D;54052;53.542;49.408;2022-10-15T02:53:04;4.67;84.91
67133;HTU21D;54052;53.542;49.408;2022-10-15T02:55:36;4.67;84.61
67133;HTU21D;54052;53.542;49.408;2022-10-15T02:58:07;4.64;84.14
67133;HTU21D;54052;53.542;49.408;2022-10-15T03:00:39;4.64;84.07
67133;HTU21D;54052;53.542;49.408;2022-10-15T03:03:10;4.61;83.49
67133;HTU21D;54052;53.542;49.408;2022-10-15T03:05:42;4.60;84.44
67133;HTU21D;54052;53.542;49.408;2022-10-15T03:08:14;4.52;84.65
67133;HTU21D;54052;53.542;49.408;2022-10-15T03:10:45;4.46;84.89
67133;HTU21D;54052;53.542;49.408;2022-10-15T03:13:16;4.44;84.84
67133;HTU21D;54052;53.542;49.408;2022-10-15T03:15:48;4.44;85.06
67133;HTU21D;54052;53.542;49.408;2022-10-15T03:18:19;4.49;83.74
67133;HTU21D;54052;53.542;49.408;2022-10-15T03:20:55;4.45;83.75
67133;HTU21D;54052;53.542;49.408;2022-10-15T03:23:27;4.50;84.02
67133;HTU21D;54052;53.542;49.408;2022-10-15T03:25:58;4.54;83.07
67133;HTU21D;54052;53.542;49.408;2022-10-15T03:28:29;4.48;82.51
67133;HTU21D;54052;53.542;49.408;2022-10-15T03:31:00;4.43;82.78
67133;HTU21D;54052;53.542;49.408;2022-10-15T03:33:32;4.37;82.96
67133;HTU21D;54052;53.542;49.408;2022-10-15T03:36:03;4.38;82.92
67133;HTU21D;54052;53.542;49.408;2022-10-15T03:38:35;4.34;83.44
67133;HTU21D;54052;53.542;49.408;2022-10-15T03:41:06;4.44;82.62
67133;HTU21D;54052;53.542;49.408;2022-10-15T03:43:38;4.51;81.68
67133;HTU21D;54052;53.542;49.408;2022-10-15T03:46:09;4.50;81.67
67133;HTU21D;54052;53.542;49.408;2022-10-15T03:48:40;4.45;81.33
67133;HTU21D;54052;53.542;49.408;2022-10-15T03:51:11;4.46;81.51
67133;HTU21D;54052;53.542;49.408;2022-10-15T03:53:43;4.45;81.15
67133;HTU21D;54052;53.542;49.408;2022-10-15T03:56:14;4.49;82.15
67133;HTU21D;54052;53.542;49.408;2022-10-15T03:58:46;4.48;81.55
67133;HTU21D;54052;53.542;49.408;2022-10-15T04:01:18;4.52;81.57
67133;HTU21D;54052;53.542;49.408;2022-10-15T04:03:53;4.52;80.91
67133;HTU21D;54052;53.542;49.408;2022-10-15T04:06:24;4.47;80.87
67133;HTU21D;54052;53.542;49.408;2022-10-15T04:08:55;4.43;80.91
67133;HTU21D;54052;53.542;49.408;2022-10-15T04:11:27;4.41;80.83
67133;HTU21D;54052;53.542;49.408;2022-10-15T04:13:58;4.45;79.75
67133;HTU21D;54052;53.542;49.408;2022-10-15T04:16:29;4.46;80.49
67133;HTU21D;54052;53.542;49.408;2022-10-15T04:19:00;4.48;80.43
67133;HTU21D;54052;53.542;49.408;2022-10-15T04:21:32;4.54;80.35
67133;HTU21D;54052;53.542;49.408;2022-10-15T04:24:03;4.50;80.67
67133;HTU21D;54052;53.542;49.408;2022-10-15T04:26:35;4.49;79.95
67133;HTU21D;54052;53.542;49.408;2022-10-15T04:29:06;4.53;80.13
67133;HTU21D;54052;53.542;49.408;2022-10-15T04:31:37;4.57;80.49
67133;HTU21D;54052;53.542;49.408;2022-10-15T04:34:09;4.62;80.49
67133;HTU21D;54052;53.542;49.408;2022-10-15T04:36:40;4.67;79.75
67133;HTU21D;54052;53.542;49.408;2022-10-15T04:39:12;4.63;80.14
67133;HTU21D;54052;53.542;49.408;2022-10-15T04:41:43;4.53;80.47
67133;HTU21D;54052;53.542;49.408;2022-10-15T04:44:15;4.51;80.60
67133;HTU21D;54052;53.542;49.408;2022-10-15T04:46:46;4.57;80.46
67133;HTU21D;54052;53.542;49.408;2022-10-15T04:49:17;4.54;81.30
67133;HTU21D;54052;53.542;49.408;2022-10-15T04:51:48;4.53;81.12
67133;HTU21D;54052;53.542;49.408;2022-10-15T04:54:20;4.54;80.93
67133;HTU21D;54052;53.542;49.408;2022-10-15T04:56:51;4.60;80.84
67133;HTU21D;54052;53.542;49.408;2022-10-15T04:59:22;4.65;80.98
67133;HTU21D;54052;53.542;49.408;2022-10-15T05:01:54;4.61;80.94
67133;HTU21D;54052;53.542;49.408;2022-10-15T05:04:25;4.63;80.78
67133;HTU21D;54052;53.542;49.408;2022-10-15T05:06:56;4.58;81.44
67133;HTU21D;54052;53.542;49.408;2022-10-15T05:09:28;4.65;80.65
67133;HTU21D;54052;53.542;49.408;2022-10-15T05:11:59;4.67;80.25
67133;HTU21D;54052;53.542;49.408;2022-10-15T05:14:30;4.74;80.73
67133;HTU21D;54052;53.542;49.408;2022-10-15T05:17:02;4.87;79.73
67133;HTU21D;54052;53.542;49.408;2022-10-15T05:19:33;4.92;80.01
67133;HTU21D;54052;53.542;49.408;2022-10-15T05:22:04;5.03;78.79
67133;HTU21D;54052;53.542;49.408;2022-10-15T05:24:36;5.04;80.35
67133;HTU21D;54052;53.542;49.408;2022-10-15T05:27:07;5.12;78.70
67133;HTU21D;54052;53.542;49.408;2022-10-15T05:29:38;5.15;78.69
67133;HTU21D;54052;53.542;49.408;2022-10-15T05:32:10;5.19;79.04
67133;HTU21D;54052;53.542;49.408;2022-10-15T05:34:41;5.24;79.76
67133;HTU21D;54052;53.542;49.408;2022-10-15T05:37:12;5.30;79.01
67133;HTU21D;54052;53.542;49.408;2022-10-15T05:39:44;5.32;79.57
67133;HTU21D;54052;53.542;49.408;2022-10-15T05:42:15;5.46;78.85
67133;HTU21D;54052;53.542;49.408;2022-10-15T05:44:47;5.61;78.55
67133;HTU21D;54052;53.542;49.408;2022-10-15T05:47:18;5.72;77.60
67133;HTU21D;54052;53.542;49.408;2022-10-15T05:49:49;5.92;76.82
67133;HTU21D;54052;53.542;49.408;2022-10-15T05:52:21;6.14;76.17
67133;HTU21D;54052;53.542;49.408;2022-10-15T05:54:52;6.31;75.31
67133;HTU21D;54052;53.542;49.408;2022-10-15T05:57:24;6.44;73.83
67133;HTU21D;54052;53.542;49.408;2022-10-15T05:59:55;6.36;73.13
67133;HTU21D;54052;53.542;49.408;2022-10-15T06:02:26;6.39;74.02
67133;HTU21D;54052;53.542;49.408;2022-10-15T06:04:58;6.48;72.02
67133;HTU21D;54052;53.542;49.408;2022-10-15T06:07:30;6.35;74.41
67133;HTU21D;54052;53.542;49.408;2022-10-15T06:10:03;6.42;72.99
67133;HTU21D;54052;53.542;49.408;2022-10-15T06:12:35;6.51;73.26
67133;HTU21D;54052;53.542;49.408;2022-10-15T06:15:09;6.74;73.41
67133;HTU21D;54052;53.542;49.408;2022-10-15T06:17:40;7.02;71.29
67133;HTU21D;54052;53.542;49.408;2022-10-15T06:20:12;6.90;71.07
67133;HTU21D;54052;53.542;49.408;2022-10-15T06:22:43;6.82;71.13
67133;HTU21D;54052;53.542;49.408;2022-10-15T06:25:15;6.91;70.72
67133;HTU21D;54052;53.542;49.408;2022-10-15T06:27:46;7.10;70.69
67133;HTU21D;54052;53.542;49.408;2022-10-15T06:30:18;7.22;70.32
67133;HTU21D;54052;53.542;49.408;2022-10-15T06:32:51;7.46;68.26
67133;HTU21D;54052;53.542;49.408;2022-10-15T06:35:24;7.61;65.51
67133;HTU21D;54052;53.542;49.408;2022-10-15T06:37:59;7.61;66.04
67133;HTU21D;54052;53.542;49.408;2022-10-15T06:40:31;7.58;65.82
67133;HTU21D;54052;53.542;49.408;2022-10-15T06:43:04;7.43;67.77
67133;HTU21D;54052;53.542;49.408;2022-10-15T06:45:38;7.32;66.47
67133;HTU21D;54052;53.542;49.408;2022-10-15T06:48:09;7.32;67.84
67133;HTU21D;54052;53.542;49.408;2022-10-15T06:50:41;7.49;69.45
67133;HTU21D;54052;53.542;49.408;2022-10-15T06:53:12;7.72;66.36
67133;HTU21D;54052;53.542;49.408;2022-10-15T06:55:44;7.58;64.39
67133;HTU21D;54052;53.542;49.408;2022-10-15T06:58:15;7.29;67.46
67133;HTU21D;54052;53.542;49.408;2022-10-15T07:00:46;7.26;67.78
67133;HTU21D;54052;53.542;49.408;2022-10-15T07:03:18;7.28;67.66
67133;HTU21D;54052;53.542;49.408;2022-10-15T07:05:49;7.27;67.85
67133;HTU21D;54052;53.542;49.408;2022-10-15T07:08:20;7.11;67.26
67133;HTU21D;54052;53.542;49.408;2022-10-15T07:10:52;6.91;66.89
67133;HTU21D;54052;53.542;49.408;2022-10-15T07:13:23;6.71;68.07
67133;HTU21D;54052;53.542;49.408;2022-10-15T07:15:54;6.66;69.13
67133;HTU21D;54052;53.542;49.408;2022-10-15T07:18:26;6.54;69.61
67133;HTU21D;54052;53.542;49.408;2022-10-15T07:20:57;6.43;70.80
67133;HTU21D;54052;53.542;49.408;2022-10-15T07:23:29;6.48;70.07
67133;HTU21D;54052;53.542;49.408;2022-10-15T07:26:00;6.50;71.26
67133;HTU21D;54052;53.542;49.408;2022-10-15T07:28:32;6.59;69.74
67133;HTU21D;54052;53.542;49.408;2022-10-15T07:31:05;6.58;69.95
67133;HTU21D;54052;53.542;49.408;2022-10-15T07:33:37;6.66;70.73
67133;HTU21D;54052;53.542;49.408;2022-10-15T07:36:10;6.71;70.17
67133;HTU21D;54052;53.542;49.408;2022-10-15T07:38:42;6.80;69.55
67133;HTU21D;54052;53.542;49.408;2022-10-15T07:41:14;6.76;69.71
67133;HTU21D;54052;53.542;49.408;2022-10-15T07:43:46;6.85;70.99
67133;HTU21D;54052;53.542;49.408;2022-10-15T07:46:17;7.00;69.86
67133;HTU21D;54052;53.542;49.408;2022-10-15T07:48:48;7.14;70.45
67133;HTU21D;54052;53.542;49.408;2022-10-15T07:51:20;7.38;68.72
67133;HTU21D;54052;53.542;49.408;2022-10-15T07:53:51;7.61;68.46
67133;HTU21D;54052;53.542;49.408;2022-10-15T07:56:22;7.93;66.73
67133;HTU21D;54052;53.542;49.408;2022-10-15T07:58:54;8.07;65.26
67133;HTU21D;54052;53.542;49.408;2022-10-15T08:01:25;8.04;65.75
67133;HTU21D;54052;53.542;49.408;2022-10-15T08:03:56;8.20;65.84
67133;HTU21D;54052;53.542;49.408;2022-10-15T08:06:30;8.26;66.94
67133;HTU21D;54052;53.542;49.408;2022-10-15T08:09:04;8.37;65.81
67133;HTU21D;54052;53.542;49.408;2022-10-15T08:11:35;8.26;65.62
67133;HTU21D;54052;53.542;49.408;2022-10-15T08:14:06;8.30;66.50
67133;HTU21D;54052;53.542;49.408;2022-10-15T08:16:38;8.14;65.58
67133;HTU21D;54052;53.542;49.408;2022-10-15T08:19:09;8.08;65.32
67133;HTU21D;54052;53.542;49.408;2022-10-15T08:21:40;7.85;66.45
67133;HTU21D;54052;53.542;49.408;2022-10-15T08:24:12;7.92;66.36
67133;HTU21D;54052;53.542;49.408;2022-10-15T08:26:43;7.99;67.23
67133;HTU21D;54052;53.542;49.408;2022-10-15T08:29:15;8.05;67.94
67133;HTU21D;54052;53.542;49.408;2022-10-15T08:31:46;8.12;67.84
67133;HTU21D;54052;53.542;49.408;2022-10-15T08:34:18;8.07;66.24
67133;HTU21D;54052;53.542;49.408;2022-10-15T08:36:50;8.07;67.37
67133;HTU21D;54052;53.542;49.408;2022-10-15T08:39:21;8.09;63.63
67133;HTU21D;54052;53.542;49.408;2022-10-15T08:41:56;8.05;63.95
67133;HTU21D;54052;53.542;49.408;2022-10-15T08:44:42;8.02;63.29
67133;HTU21D;54052;53.542;49.408;2022-10-15T08:47:37;7.87;61.67
67133;HTU21D;54052;53.542;49.408;2022-10-15T08:53:02;7.82;63.85
67133;HTU21D;54052;53.542;49.408;2022-10-15T08:55:37;7.74;63.72
67133;HTU21D;54052;53.542;49.408;2022-10-15T08:58:14;7.70;64.37
67133;HTU21D;54052;53.542;49.408;2022-10-15T09:00:58;7.83;64.72
67133;HTU21D;54052;53.542;49.408;2022-10-15T09:06:22;7.90;63.57
67133;HTU21D;54052;53.542;49.408;2022-10-15T09:11:43;7.96;62.92
67133;HTU21D;54052;53.542;49.408;2022-10-15T09:14:25;8.03;62.90
67133;HTU21D;54052;53.542;49.408;2022-10-15T09:17:03;8.05;64.44
67133;HTU21D;54052;53.542;49.408;2022-10-15T09:19:36;8.14;62.99
67133;HTU21D;54052;53.542;49.408;2022-10-15T09:22:11;8.13;63.37
67133;HTU21D;54052;53.542;49.408;2022-10-15T09:24:44;8.15;62.94
67133;HTU21D;54052;53.542;49.408;2022-10-15T09:35:43;8.39;62.86
67133;HTU21D;54052;53.542;49.408;2022-10-15T09:44:10;8.48;63.77
67133;HTU21D;54052;53.542;49.408;2022-10-15T09:46:46;8.46;62.71
67133;HTU21D;54052;53.542;49.408;2022-10-15T09:49:24;8.42;62.41
67133;HTU21D;54052;53.542;49.408;2022-10-15T09:52:23;8.41;61.99
67133;HTU21D;54052;53.542;49.408;2022-10-15T09:57:32;8.30;63.05
67133;HTU21D;54052;53.542;49.408;2022-10-15T10:00:08;8.20;65.14
67133;HTU21D;54052;53.542;49.408;2022-10-15T10:02:40;8.15;65.04
67133;HTU21D;54052;53.542;49.408;2022-10-15T10:05:27;7.86;63.79
67133;HTU21D;54052;53.542;49.408;2022-10-15T10:08:09;8.00;64.24
67133;HTU21D;54052;53.542;49.408;2022-10-15T10:10:41;7.96;63.73
67133;HTU21D;54052;53.542;49.408;2022-10-15T10:13:29;7.86;63.26
67133;HTU21D;54052;53.542;49.408;2022-10-15T10:16:10;7.76;63.44
67133;HTU21D;54052;53.542;49.408;2022-10-15T10:18:42;7.84;64.52
67133;HTU21D;54052;53.542;49.408;2022-10-15T10:21:29;7.74;64.27
67133;HTU21D;54052;53.542;49.408;2022-10-15T10:24:27;7.73;64.00
67133;HTU21D;54052;53.542;49.408;2022-10-15T10:27:01;7.70;64.79
67133;HTU21D;54052;53.542;49.408;2022-10-15T10:29:36;7.70;62.54
67133;HTU21D;54052;53.542;49.408;2022-10-15T10:32:19;7.78;63.79
67133;HTU21D;54052;53.542;49.408;2022-10-15T10:34:51;7.87;62.92
67133;HTU21D;54052;53.542;49.408;2022-10-15T10:37:24;7.97;63.78
67133;HTU21D;54052;53.542;49.408;2022-10-15T10:39:57;8.04;62.64
67133;HTU21D;54052;53.542;49.408;2022-10-15T10:42:33;8.11;63.68
67133;HTU21D;54052;53.542;49.408;2022-10-15T10:45:20;8.15;64.53
67133;HTU21D;54052;53.542;49.408;2022-10-15T10:47:52;8.03;62.70
67133;HTU21D;54052;53.542;49.408;2022-10-15T10:50:30;7.87;64.14
67133;HTU21D;54052;53.542;49.408;2022-10-15T10:53:28;7.76;64.41
67133;HTU21D;54052;53.542;49.408;2022-10-15T10:56:00;7.74;64.52
67133;HTU21D;54052;53.542;49.408;2022-10-15T10:58:34;7.74;65.06
67133;HTU21D;54052;53.542;49.408;2022-10-15T11:01:10;7.77;65.40
67133;HTU21D;54052;53.542;49.408;2022-10-15T11:03:44;7.77;65.50
67133;HTU21D;54052;53.542;49.408;2022-10-15T11:15:29;7.60;66.19
67133;HTU21D;54052;53.542;49.408;2022-10-15T11:21:00;7.67;65.33
67133;HTU21D;54052;53.542;49.408;2022-10-15T11:29:15;7.43;66.65
67133;HTU21D;54052;53.542;49.408;2022-10-15T11:38:35;7.38;67.15
67133;HTU21D;54052;53.542;49.408;2022-10-15T11:44:36;7.29;67.80
67133;HTU21D;54052;53.542;49.408;2022-10-15T11:53:00;7.28;67.94
67133;HTU21D;54052;53.542;49.408;2022-10-15T11:55:51;7.20;66.76
67133;HTU21D;54052;53.542;49.408;2022-10-15T11:58:28;7.20;68.02
67133;HTU21D;54052;53.542;49.408;2022-10-15T12:01:05;7.23;68.26
67133;HTU21D;54052;53.542;49.408;2022-10-15T12:04:23;7.26;67.87
67133;HTU21D;54052;53.542;49.408;2022-10-15T12:07:00;7.24;67.97
67133;HTU21D;54052;53.542;49.408;2022-10-15T12:09:38;7.27;68.58
67133;HTU21D;54052;53.542;49.408;2022-10-15T12:12:32;7.23;68.17
67133;HTU21D;54052;53.542;49.408;2022-10-15T12:18:17;7.15;69.08
67133;HTU21D;54052;53.542;49.408;2022-10-15T12:20:50;7.13;69.34
67133;HTU21D;54052;53.542;49.408;2022-10-15T12:28:56;7.19;68.94
67133;HTU21D;54052;53.542;49.408;2022-10-15T12:34:38;7.25;69.39
67133;HTU21D;54052;53.542;49.408;2022-10-15T12:37:17;7.17;68.42
67133;HTU21D;54052;53.542;49.408;2022-10-15T12:39:58;7.18;68.84
67133;HTU21D;54052;53.542;49.408;2022-10-15T12:42:35;7.27;68.86
67133;HTU21D;54052;53.542;49.408;2022-10-15T12:45:23;7.30;68.50
67133;HTU21D;54052;53.542;49.408;2022-10-15T12:50:43;7.24;67.73
67133;HTU21D;54052;53.542;49.408;2022-10-15T12:56:20;7.12;68.02
67133;HTU21D;54052;53.542;49.408;2022-10-15T12:58:54;7.14;68.00
67133;HTU21D;54052;53.542;49.408;2022-10-15T13:04:17;6.98;68.62
67133;HTU21D;54052;53.542;49.408;2022-10-15T13:06:50;6.97;68.66
67133;HTU21D;54052;53.542;49.408;2022-10-15T13:09:27;6.97;68.50
67133;HTU21D;54052;53.542;49.408;2022-10-15T13:11:59;6.96;68.87
67133;HTU21D;54052;53.542;49.408;2022-10-15T13:14:38;7.02;68.83
67133;HTU21D;54052;53.542;49.408;2022-10-15T13:17:15;7.07;69.58
67133;HTU21D;54052;53.542;49.408;2022-10-15T13:20:01;6.99;69.45
67133;HTU21D;54052;53.542;49.408;2022-10-15T13:22:35;6.91;69.95
67133;HTU21D;54052;53.542;49.408;2022-10-15T13:25:16;6.87;70.14
67133;HTU21D;54052;53.542;49.408;2022-10-15T13:27:48;6.88;69.63
67133;HTU21D;54052;53.542;49.408;2022-10-15T13:30:19;6.88;69.76
67133;HTU21D;54052;53.542;49.408;2022-10-15T13:32:52;6.86;69.96
67133;HTU21D;54052;53.542;49.408;2022-10-15T13:35:27;6.90;70.36
67133;HTU21D;54052;53.542;49.408;2022-10-15T13:38:00;7.00;70.23
67133;HTU21D;54052;53.542;49.408;2022-10-15T13:40:33;6.98;69.58
67133;HTU21D;54052;53.542;49.408;2022-10-15T13:43:23;6.91;70.60
67133;HTU21D;54052;53.542;49.408;2022-10-15T13:45:57;6.89;70.81
67133;HTU21D;54052;53.542;49.408;2022-10-15T13:48:30;6.88;71.51
67133;HTU21D;54052;53.542;49.408;2022-10-15T13:51:04;6.94;71.08
67133;HTU21D;54052;53.542;49.408;2022-10-15T13:53:39;7.04;70.45
67133;HTU21D;54052;53.542;49.408;2022-10-15T13:56:29;7.04;70.08
67133;HTU21D;54052;53.542;49.408;2022-10-15T13:59:02;7.05;70.67
67133;HTU21D;54052;53.542;49.408;2022-10-15T14:01:33;7.04;70.69
67133;HTU21D;54052;53.542;49.408;2022-10-15T14:04:15;7.03;70.63
67133;HTU21D;54052;53.542;49.408;2022-10-15T14:06:52;7.04;71.00
67133;HTU21D;54052;53.542;49.408;2022-10-15T14:09:32;7.07;70.26
67133;HTU21D;54052;53.542;49.408;2022-10-15T14:12:06;7.09;69.79
67133;HTU21D;54052;53.542;49.408;2022-10-15T14:14:38;7.01;70.55
67133;HTU21D;54052;53.542;49.408;2022-10-15T14:17:22;7.01;70.16
67133;HTU21D;54052;53.542;49.408;2022-10-15T14:20:00;7.03;70.32
67133;HTU21D;54052;53.542;49.408;2022-10-15T14:22:34;7.11;69.58
67133;HTU21D;54052;53.542;49.408;2022-10-15T14:25:09;7.12;69.07
67133;HTU21D;54052;53.542;49.408;2022-10-15T14:27:44;7.11;69.63
67133;HTU21D;54052;53.542;49.408;2022-10-15T14:30:42;7.10;70.04
67133;HTU21D;54052;53.542;49.408;2022-10-15T14:36:08;7.04;70.13
67133;HTU21D;54052;53.542;49.408;2022-10-15T14:38:41;7.00;70.29
67133;HTU21D;54052;53.542;49.408;2022-10-15T14:41:32;6.99;70.39
67133;HTU21D;54052;53.542;49.408;2022-10-15T14:46:45;7.10;70.12
67133;HTU21D;54052;53.542;49.408;2022-10-15T14:49:23;7.01;70.75
67133;HTU21D;54052;53.542;49.408;2022-10-15T14:52:09;6.99;70.82
67133;HTU21D;54052;53.542;49.408;2022-10-15T14:55:27;6.98;70.52
67133;HTU21D;54052;53.542;49.408;2022-10-15T14:57:41;7.00;70.57
67133;HTU21D;54052;53.542;49.408;2022-10-15T15:00:31;7.00;70.93
67133;HTU21D;54052;53.542;49.408;2022-10-15T15:03:05;6.98;70.94
67133;HTU21D;54052;53.542;49.408;2022-10-15T15:05:46;6.96;70.41
67133;HTU21D;54052;53.542;49.408;2022-10-15T15:08:18;7.01;70.82
67133;HTU21D;54052;53.542;49.408;2022-10-15T15:10:51;7.14;69.56
67133;HTU21D;54052;53.542;49.408;2022-10-15T15:13:24;7.12;70.26
67133;HTU21D;54052;53.542;49.408;2022-10-15T15:15:56;7.05;70.65
67133;HTU21D;54052;53.542;49.408;2022-10-15T15:18:27;7.01;71.13
67133;HTU21D;54052;53.542;49.408;2022-10-15T15:21:05;7.09;71.67
67133;HTU21D;54052;53.542;49.408;2022-10-15T15:23:37;7.09;71.06
67133;HTU21D;54052;53.542;49.408;2022-10-15T15:26:09;7.03;71.27
67133;HTU21D;54052;53.542;49.408;2022-10-15T15:28:40;7.01;71.67
67133;HTU21D;54052;53.542;49.408;2022-10-15T15:31:15;6.94;72.29
67133;HTU21D;54052;53.542;49.408;2022-10-15T15:33:47;6.86;72.65
67133;HTU21D;54052;53.542;49.408;2022-10-15T15:36:18;6.84;72.37
67133;HTU21D;54052;53.542;49.408;2022-10-15T15:38:50;6.81;72.70
67133;HTU21D;54052;53.542;49.408;2022-10-15T15:41:22;6.83;73.00
67133;HTU21D;54052;53.542;49.408;2022-10-15T15:43:54;6.84;72.15
67133;HTU21D;54052;53.542;49.408;2022-10-15T15:46:26;6.91;72.09
67133;HTU21D;54052;53.542;49.408;2022-10-15T15:48:58;6.89;71.16
67133;HTU21D;54052;53.542;49.408;2022-10-15T15:51:30;6.85;70.61
67133;HTU21D;54052;53.542;49.408;2022-10-15T15:54:02;6.81;71.21
67133;HTU21D;54052;53.542;49.408;2022-10-15T15:56:36;6.76;71.61
67133;HTU21D;54052;53.542;49.408;2022-10-15T15:59:09;6.75;71.10
67133;HTU21D;54052;53.542;49.408;2022-10-15T16:01:41;6.81;71.00
67133;HTU21D;54052;53.542;49.408;2022-10-15T16:04:12;6.81;69.79
67133;HTU21D;54052;53.542;49.408;2022-10-15T16:06:44;6.82;69.38
67133;HTU21D;54052;53.542;49.408;2022-10-15T16:09:19;6.87;69.64
67133;HTU21D;54052;53.542;49.408;2022-10-15T16:11:52;6.88;68.65
67133;HTU21D;54052;53.542;49.408;2022-10-15T16:14:23;6.85;69.71
67133;HTU21D;54052;53.542;49.408;2022-10-15T16:16:55;6.82;69.23
67133;HTU21D;54052;53.542;49.408;2022-10-15T16:19:26;6.82;68.89
67133;HTU21D;54052;53.542;49.408;2022-10-15T16:21:57;6.87;68.79
67133;HTU21D;54052;53.542;49.408;2022-10-15T16:24:29;6.87;68.80
67133;HTU21D;54052;53.542;49.408;2022-10-15T16:27:00;6.83;68.08
67133;HTU21D;54052;53.542;49.408;2022-10-15T16:29:32;6.76;69.29
67133;HTU21D;54052;53.542;49.408;2022-10-15T16:32:03;6.78;69.10
67133;HTU21D;54052;53.542;49.408;2022-10-15T16:34:34;6.75;69.32
67133;HTU21D;54052;53.542;49.408;2022-10-15T16:37:06;6.76;69.41
67133;HTU21D;54052;53.542;49.408;2022-10-15T16:39:37;6.78;69.49
67133;HTU21D;54052;53.542;49.408;2022-10-15T16:42:09;6.76;70.03
67133;HTU21D;54052;53.542;49.408;2022-10-15T16:44:40;6.78;70.32
67133;HTU21D;54052;53.542;49.408;2022-10-15T16:47:11;6.84;70.04
67133;HTU21D;54052;53.542;49.408;2022-10-15T16:49:43;6.84;70.04
67133;HTU21D;54052;53.542;49.408;2022-10-15T16:52:15;6.80;70.20
67133;HTU21D;54052;53.542;49.408;2022-10-15T16:54:47;6.81;70.79
67133;HTU21D;54052;53.542;49.408;2022-10-15T16:57:18;6.90;70.18
67133;HTU21D;54052;53.542;49.408;2022-10-15T16:59:49;6.94;69.13
67133;HTU21D;54052;53.542;49.408;2022-10-15T17:02:21;6.96;69.26
67133;HTU21D;54052;53.542;49.408;2022-10-15T17:04:52;6.95;68.62
67133;HTU21D;54052;53.542;49.408;2022-10-15T17:07:24;6.98;68.78
67133;HTU21D;54052;53.542;49.408;2022-10-15T17:09:55;6.98;68.94
67133;HTU21D;54052;53.542;49.408;2022-10-15T17:12:27;6.96;69.68
67133;HTU21D;54052;53.542;49.408;2022-10-15T17:14:58;6.97;69.24
67133;HTU21D;54052;53.542;49.408;2022-10-15T17:17:29;7.02;68.69
67133;HTU21D;54052;53.542;49.408;2022-10-15T17:20:01;7.03;68.52
67133;HTU21D;54052;53.542;49.408;2022-10-15T17:22:32;7.02;68.62
67133;HTU21D;54052;53.542;49.408;2022-10-15T17:25:05;7.04;68.86
67133;HTU21D;54052;53.542;49.408;2022-10-15T17:27:36;7.14;68.40
67133;HTU21D;54052;53.542;49.408;2022-10-15T17:30:08;7.16;68.52
67133;HTU21D;54052;53.542;49.408;2022-10-15T17:32:39;7.11;68.37
67133;HTU21D;54052;53.542;49.408;2022-10-15T17:35:10;7.09;68.54
67133;HTU21D;54052;53.542;49.408;2022-10-15T17:37:42;7.02;68.84